Time;durP1;ratioP1;P1;durP2;ratioP2;P2;SDS_P1;SDS_P2;PMS_P1;PMS_P2;Temp;Humidity;BMP_temperature;BMP_pressure;BME280_temperature;BME280_humidity;BME280_pressure;Samples;Min_cycle;Max_cycle;Signal;HPM_P1;HPM_P2
2022/03/01 05:22:36;;;;;;;15.73;7.07;;;;;;;-0.46;62.42;101497.34;5129339;27;20136;-70
2022/03/01 05:25:02;;;;;;;11.70;7.30;;;;;;;-0.39;61.72;101484.81;5129683;28;20037;-70
2022/03/01 05:27:28;;;;;;;14.10;7.47;;;;;;;-0.48;62.04;101483.50;5129440;28;20046;-70
2022/03/01 05:29:54;;;;;;;14.50;6.72;;;;;;;-0.46;62.23;101493.88;5128247;28;20453;-71
2022/03/01 05:32:23;;;;;;;17.48;7.28;;;;;;;-0.47;62.76;101484.34;5128260;28;20039;-70
2022/03/01 05:34:49;;;;;;;13.52;6.60;;;;;;;-0.44;62.01;101490.31;5111149;28;20038;-71
2022/03/01 05:37:14;;;;;;;13.48;6.90;;;;;;;-0.35;61.35;101494.25;5129347;28;20460;-71
2022/03/01 05:39:40;;;;;;;12.18;7.30;;;;;;;-0.33;61.20;101482.78;5129569;28;20084;-71
2022/03/01 05:42:06;;;;;;;16.17;8.10;;;;;;;-0.44;62.64;101484.22;5128991;28;20108;-71
2022/03/01 05:44:32;;;;;;;15.05;7.53;;;;;;;-0.41;62.15;101490.13;5129307;28;20073;-71
2022/03/01 05:46:59;;;;;;;15.07;7.70;;;;;;;-0.38;61.51;101497.88;5127914;28;20453;-71
2022/03/01 05:49:24;;;;;;;17.50;7.97;;;;;;;-0.42;62.35;101493.69;5129371;28;20096;-71
2022/03/01 05:51:50;;;;;;;15.77;7.97;;;;;;;-0.45;62.02;101493.00;5127572;28;20088;-71
2022/03/01 05:54:15;;;;;;;14.85;8.05;;;;;;;-0.43;61.96;101491.16;5129173;28;20091;-71
2022/03/01 05:56:41;;;;;;;13.10;7.60;;;;;;;-0.40;62.55;101491.00;5127791;28;20193;-70
2022/03/01 05:59:07;;;;;;;13.68;8.38;;;;;;;-0.49;63.02;101500.13;5129718;28;20552;-70
2022/03/01 06:01:32;;;;;;;15.45;7.43;;;;;;;-0.50;62.42;101497.59;5128847;28;20085;-70
2022/03/01 06:03:58;;;;;;;15.65;8.07;;;;;;;-0.53;62.86;101493.34;5128823;28;20053;-70
2022/03/01 06:06:24;;;;;;;13.77;8.05;;;;;;;-0.55;63.09;101501.25;5128882;28;20058;-70
2022/03/01 06:08:50;;;;;;;11.73;6.55;;;;;;;-0.56;62.76;101496.09;5127629;28;20039;-70
2022/03/01 06:11:15;;;;;;;13.15;6.75;;;;;;;-0.55;63.10;101506.50;5127587;28;20031;-70
2022/03/01 06:13:43;;;;;;;13.77;7.22;;;;;;;-0.57;63.34;101510.97;5128500;28;20039;-71
2022/03/01 06:16:09;;;;;;;12.30;7.15;;;;;;;-0.61;63.23;101508.56;5128755;27;20040;-71
2022/03/01 06:18:35;;;;;;;15.35;6.88;;;;;;;-0.63;64.10;101513.88;5127416;28;20035;-71
2022/03/01 06:21:01;;;;;;;15.68;7.95;;;;;;;-0.60;63.47;101523.34;5127139;28;20063;-71
2022/03/01 06:23:28;;;;;;;14.07;7.28;;;;;;;-0.61;63.54;101524.25;5128303;28;20134;-72
2022/03/01 06:25:54;;;;;;;14.50;7.72;;;;;;;-0.64;63.29;101521.78;5128508;28;20028;-71
2022/03/01 06:28:19;;;;;;;18.98;8.38;;;;;;;-0.66;64.13;101516.59;5127169;28;20068;-71
2022/03/01 06:30:45;;;;;;;13.77;6.78;;;;;;;-0.59;63.85;101522.41;5128602;27;20031;-71
2022/03/01 06:33:11;;;;;;;15.90;8.00;;;;;;;-0.54;63.27;101520.44;5118631;28;20039;-71
2022/03/01 06:35:36;;;;;;;12.30;7.22;;;;;;;-0.43;63.38;101523.41;5114765;28;20484;-71
2022/03/01 06:38:02;;;;;;;14.70;8.15;;;;;;;-0.40;62.74;101525.88;5114710;28;20465;-71
2022/03/01 06:40:31;;;;;;;15.70;8.13;;;;;;;-0.32;62.91;101531.63;5114595;28;20035;-71
2022/03/01 06:42:56;;;;;;;15.27;7.93;;;;;;;-0.36;62.75;101535.28;5114210;28;20088;-71
2022/03/01 06:45:22;;;;;;;15.02;8.02;;;;;;;-0.34;62.99;101537.81;5114594;28;20036;-71
2022/03/01 06:47:49;;;;;;;13.80;7.53;;;;;;;-0.29;64.23;101539.31;5114594;28;20036;-71
2022/03/01 06:50:14;;;;;;;14.13;7.25;;;;;;;-0.10;61.94;101548.94;5114460;28;20122;-71
2022/03/01 06:52:40;;;;;;;12.75;7.75;;;;;;;-0.03;61.81;101545.94;5114216;28;20118;-71
2022/03/01 06:55:08;;;;;;;18.60;8.82;;;;;;;0.08;61.42;101542.81;5114481;28;20069;-71
2022/03/01 06:57:34;;;;;;;19.35;8.20;;;;;;;0.23;60.47;101543.81;5096028;28;20488;-71
2022/03/01 07:00:00;;;;;;;12.68;7.30;;;;;;;0.42;59.62;101541.97;5114274;28;20041;-71
2022/03/01 07:02:26;;;;;;;14.52;7.50;;;;;;;0.38;60.51;101552.69;5112703;28;20253;-71
2022/03/01 07:04:54;;;;;;;15.75;7.68;;;;;;;0.59;59.01;101554.25;5114437;28;20062;-71
2022/03/01 07:07:22;;;;;;;14.60;8.07;;;;;;;0.61;59.28;101555.03;5114188;28;20081;-70
2022/03/01 07:09:47;;;;;;;17.35;8.63;;;;;;;0.67;59.12;101559.09;5114497;28;20412;-70
2022/03/01 07:12:13;;;;;;;16.02;7.15;;;;;;;0.90;58.63;101557.91;5113849;28;20027;-70
2022/03/01 07:14:39;;;;;;;15.95;8.05;;;;;;;0.81;57.81;101564.50;5114052;28;20057;-69
2022/03/01 07:17:04;;;;;;;15.38;7.93;;;;;;;0.97;57.20;101557.50;5113842;28;20032;-71
2022/03/01 07:19:30;;;;;;;22.88;8.13;;;;;;;1.14;57.03;101564.50;5112585;28;20050;-69
2022/03/01 07:21:56;;;;;;;16.60;7.45;;;;;;;1.29;56.49;101553.19;5113653;28;20035;-70
2022/03/01 07:24:21;;;;;;;15.55;8.02;;;;;;;1.26;56.99;101558.63;5095553;28;20027;-71
2022/03/01 07:26:47;;;;;;;14.77;7.28;;;;;;;1.48;56.37;101568.81;5113672;28;20110;-71
2022/03/01 07:29:13;;;;;;;14.23;7.55;;;;;;;1.52;56.51;101564.25;5113746;28;20031;-70
2022/03/01 07:31:38;;;;;;;16.75;8.60;;;;;;;1.66;57.85;101561.72;5112264;28;20032;-71
2022/03/01 07:34:04;;;;;;;14.93;8.00;;;;;;;1.71;55.96;101564.94;5113744;28;20493;-71
2022/03/01 07:36:30;;;;;;;15.68;7.63;;;;;;;1.56;56.00;101556.09;5113764;28;20046;-70
2022/03/01 07:38:55;;;;;;;13.68;8.25;;;;;;;1.75;55.79;101555.09;5107425;27;20439;-71
2022/03/01 07:41:21;;;;;;;16.15;7.65;;;;;;;1.87;55.42;101559.69;5113373;28;20461;-70
2022/03/01 07:43:47;;;;;;;17.17;7.95;;;;;;;1.89;55.17;101556.06;5111872;28;20044;-70
2022/03/01 07:46:13;;;;;;;12.98;7.70;;;;;;;2.02;54.68;101563.22;5112876;28;20046;-69
2022/03/01 07:48:40;;;;;;;11.88;7.35;;;;;;;1.97;54.41;101557.41;5113032;28;20392;-70
2022/03/01 07:51:06;;;;;;;14.52;8.30;;;;;;;1.94;55.76;101550.50;5113309;28;20522;-71
2022/03/01 07:53:32;;;;;;;15.38;8.85;;;;;;;2.14;54.99;101546.75;5112210;28;20024;-71
2022/03/01 07:55:57;;;;;;;14.10;7.65;;;;;;;2.18;53.93;101553.53;5113308;28;20039;-70
2022/03/01 07:58:23;;;;;;;15.10;8.35;;;;;;;2.37;54.10;101562.06;5113549;28;20119;-70
2022/03/01 08:00:49;;;;;;;16.13;9.13;;;;;;;2.63;52.96;101557.09;5113492;28;20492;-72
2022/03/01 08:03:15;;;;;;;14.20;8.18;;;;;;;2.68;53.36;101557.66;5113132;28;20104;-70
2022/03/01 08:05:41;;;;;;;18.65;8.88;;;;;;;2.84;52.96;101547.91;5113104;28;20039;-71
2022/03/01 08:08:07;;;;;;;12.30;7.72;;;;;;;2.99;52.25;101561.91;5113163;28;20042;-71
2022/03/01 08:10:32;;;;;;;16.25;7.80;;;;;;;3.09;50.96;101549.06;5112354;28;20036;-70
2022/03/01 08:12:58;;;;;;;13.13;8.07;;;;;;;3.18;51.60;101546.69;5112260;28;20109;-71
2022/03/01 08:15:27;;;;;;;16.98;8.40;;;;;;;3.29;50.36;101543.41;5112634;28;20054;-70
2022/03/01 08:17:55;;;;;;;11.95;7.15;;;;;;;3.50;49.99;101557.88;5112903;28;20053;-70
2022/03/01 08:20:21;;;;;;;;;;;;;;;3.57;49.13;101544.31;5113081;28;20102;-71
2022/03/01 08:22:46;;;;;;;13.90;8.73;;;;;;;3.56;49.63;101545.25;5112352;28;20440;-70
2022/03/01 08:25:14;;;;;;;13.82;7.38;;;;;;;3.64;49.34;101548.25;5112443;28;20035;-70
2022/03/01 08:27:40;;;;;;;16.65;7.45;;;;;;;3.75;48.99;101546.63;5112318;28;20053;-70
2022/03/01 08:30:06;;;;;;;12.70;7.70;;;;;;;3.98;49.04;101547.81;5112546;28;20031;-71
2022/03/01 08:32:32;;;;;;;12.25;7.15;;;;;;;4.07;48.77;101552.47;5112091;28;20062;-70
2022/03/01 08:34:57;;;;;;;11.80;6.55;;;;;;;4.21;48.12;101548.94;5110896;28;20028;-70
2022/03/01 08:37:23;;;;;;;12.77;7.43;;;;;;;4.25;47.92;101539.88;5112242;28;20036;-70
2022/03/01 08:39:48;;;;;;;15.23;8.13;;;;;;;4.52;48.01;101544.28;5112216;28;20396;-70
2022/03/01 08:42:14;;;;;;;11.55;7.32;;;;;;;4.53;46.95;101536.25;5112106;28;20477;-70
2022/03/01 08:44:40;;;;;;;14.05;8.10;;;;;;;4.62;46.81;101535.63;5112564;28;20039;-71
2022/03/01 08:47:05;;;;;;;11.25;7.18;;;;;;;4.33;47.52;101536.75;5112029;28;20142;-71
2022/03/01 08:49:31;;;;;;;11.00;6.75;;;;;;;4.56;46.75;101538.69;5111016;28;20035;-71
2022/03/01 08:51:57;;;;;;;12.82;7.15;;;;;;;4.70;46.46;101545.69;5111876;28;20023;-70
2022/03/01 08:54:23;;;;;;;11.60;6.75;;;;;;;4.71;46.43;101536.81;5111707;28;20075;-70
2022/03/01 08:56:49;;;;;;;14.02;6.78;;;;;;;4.82;45.41;101534.25;5108578;28;20114;-69
2022/03/01 08:59:15;;;;;;;11.00;6.65;;;;;;;4.90;45.86;101541.69;5112158;28;20067;-70
2022/03/01 09:01:40;;;;;;;11.98;6.88;;;;;;;5.12;46.19;101541.03;5111675;28;20051;-70
2022/03/01 09:04:06;;;;;;;11.77;7.35;;;;;;;5.07;45.70;101530.78;5111213;28;20085;-70
2022/03/01 09:06:32;;;;;;;12.93;7.80;;;;;;;5.23;44.85;101535.00;5091705;28;20503;-72
2022/03/01 09:08:58;;;;;;;11.00;6.85;;;;;;;5.45;45.01;101527.25;5091791;28;20028;-72
2022/03/01 09:11:23;;;;;;;13.13;7.15;;;;;;;5.57;44.38;101539.59;5091514;28;20032;-71
2022/03/01 09:13:49;;;;;;;12.52;6.75;;;;;;;5.65;43.93;101544.31;5091488;28;20028;-71
2022/03/01 09:16:15;;;;;;;11.95;7.20;;;;;;;5.49;43.97;101544.59;5091452;28;20028;-71
2022/03/01 09:18:41;;;;;;;9.52;6.40;;;;;;;5.47;44.16;101540.34;5091651;28;20389;-71
2022/03/01 09:21:07;;;;;;;14.65;6.85;;;;;;;5.52;44.35;101548.81;5091631;28;20032;-71
2022/03/01 09:23:33;;;;;;;12.02;6.90;;;;;;;5.62;42.78;101550.69;5091341;28;20506;-71
2022/03/01 09:25:58;;;;;;;11.43;6.55;;;;;;;5.51;43.30;101547.13;5091514;28;20104;-71
2022/03/01 09:28:24;;;;;;;13.27;6.35;;;;;;;5.76;42.32;101543.56;5091566;28;20111;-71
2022/03/01 09:30:53;;;;;;;11.07;6.18;;;;;;;5.81;42.53;101544.94;5091687;28;20389;-71
2022/03/01 09:33:18;;;;;;;11.68;6.72;;;;;;;6.06;42.86;101528.13;5090185;28;20051;-71
2022/03/01 09:35:45;;;;;;;11.32;7.00;;;;;;;6.16;41.64;101528.31;5090169;28;20040;-71
2022/03/01 09:38:11;;;;;;;11.50;6.85;;;;;;;6.29;41.27;101526.44;5091525;28;20111;-71
2022/03/01 09:40:36;;;;;;;11.45;6.93;;;;;;;6.58;40.58;101524.22;5107113;28;20400;-72
2022/03/01 09:43:02;;;;;;;10.40;6.75;;;;;;;6.83;40.54;101531.13;5091077;28;20118;-71
2022/03/01 09:45:28;;;;;;;11.75;6.78;;;;;;;6.88;40.38;101536.09;5073319;28;20089;-71
2022/03/01 09:47:54;;;;;;;11.52;6.90;;;;;;;6.92;39.93;101534.91;5091419;28;20028;-71
2022/03/01 09:50:27;;;;;;;11.45;6.78;;;;;;;7.09;39.93;101523.81;5091332;28;20055;-71
2022/03/01 09:52:58;;;;;;;14.07;7.97;;;;;;;7.19;39.28;101524.81;5089797;28;20043;-71
2022/03/01 09:55:24;;;;;;;10.68;6.70;;;;;;;7.52;38.84;101523.09;5091108;28;20050;-71
2022/03/01 09:57:50;;;;;;;12.93;6.55;;;;;;;7.53;38.44;101532.75;5090023;28;20027;-72
2022/03/01 10:00:17;;;;;;;12.80;7.07;;;;;;;7.65;38.18;101522.97;5090011;28;20042;-71
2022/03/01 10:02:44;;;;;;;13.02;7.10;;;;;;;8.03;37.75;101525.16;5091013;28;20056;-71
2022/03/01 10:05:11;;;;;;;13.00;6.33;;;;;;;8.20;36.86;101526.41;5091191;28;20039;-71
2022/03/01 10:07:42;;;;;;;10.45;6.28;;;;;;;9.01;35.85;101516.94;5092089;28;20400;-71
2022/03/01 10:10:16;;;;;;;9.07;6.38;;;;;;;9.18;35.24;101526.94;5094944;28;20060;-70
2022/03/01 10:12:50;;;;;;;9.55;6.57;;;;;;;9.44;34.37;101519.34;5093658;28;20032;-71
2022/03/01 10:15:16;;;;;;;12.80;6.38;;;;;;;9.90;34.01;101520.56;5094910;28;20446;-70
2022/03/01 10:17:44;;;;;;;10.43;5.93;;;;;;;9.75;33.51;101517.47;5094891;28;20032;-70
2022/03/01 10:20:15;;;;;;;9.85;6.25;;;;;;;10.77;33.66;101523.28;5093563;28;20039;-70
2022/03/01 10:22:52;;;;;;;9.65;6.40;;;;;;;10.37;32.17;101524.31;5094684;28;20481;-70
2022/03/01 10:25:20;;;;;;;10.85;6.43;;;;;;;11.25;31.82;101512.44;5094716;28;20031;-70
2022/03/01 10:27:46;;;;;;;;;;;;;;;11.53;30.34;101515.09;5095255;28;20516;-71
2022/03/01 10:30:21;;;;;;;12.18;6.10;;;;;;;11.94;29.91;101514.63;5094727;28;19912;-71
2022/03/01 10:32:47;;;;;;;10.07;5.78;;;;;;;11.92;29.56;101507.72;5094462;28;20036;-71
2022/03/01 10:35:12;;;;;;;10.40;6.82;;;;;;;11.95;30.12;101500.28;5094473;28;20092;-71
2022/03/01 10:37:39;;;;;;;9.35;6.55;;;;;;;11.88;29.73;101507.22;5094594;28;20527;-71
2022/03/01 10:40:10;;;;;;;7.88;6.18;;;;;;;11.39;30.72;101501.28;5094612;28;20059;-70
2022/03/01 10:42:36;;;;;;;9.95;6.18;;;;;;;12.11;30.03;101499.56;5093819;28;20512;-70
2022/03/01 10:45:02;;;;;;;9.32;6.40;;;;;;;11.57;29.86;101497.81;5094442;28;20032;-72
2022/03/01 10:47:28;;;;;;;8.85;6.40;;;;;;;11.90;29.63;101491.03;5092952;28;20119;-71
2022/03/01 10:50:07;;;;;;;9.98;5.80;;;;;;;12.40;29.12;101480.63;5094405;28;20548;-71
2022/03/01 10:52:41;;;;;;;10.52;7.07;;;;;;;12.27;28.39;101482.88;5093859;28;20119;-71
2022/03/01 10:55:24;;;;;;;9.23;6.40;;;;;;;11.96;29.37;101490.44;5094223;28;20036;-70
2022/03/01 10:58:03;;;;;;;11.90;7.13;;;;;;;11.53;29.59;101486.59;5094322;28;20048;-70
2022/03/01 11:00:31;;;;;;;11.85;6.82;;;;;;;11.64;29.54;101482.88;5094220;28;20067;-71
2022/03/01 11:02:56;;;;;;;10.15;6.45;;;;;;;11.50;29.77;101481.56;5093843;28;20103;-70
2022/03/01 11:05:22;;;;;;;8.18;6.00;;;;;;;10.83;31.48;101488.88;5093784;28;20111;-70
2022/03/01 11:07:51;;;;;;;9.57;6.43;;;;;;;10.83;30.50;101482.72;5093848;28;20127;-71
2022/03/01 11:10:19;;;;;;;11.38;6.38;;;;;;;10.38;31.61;101482.53;5097824;28;20441;-71
2022/03/01 11:12:46;;;;;;;12.13;6.88;;;;;;;10.84;30.91;101487.88;5113899;28;20027;-71
2022/03/01 11:15:39;;;;;;;8.45;6.20;;;;;;;11.08;30.24;101484.72;5114151;28;20092;-71
2022/03/01 11:18:26;;;;;;;10.65;6.15;;;;;;;10.15;31.30;101492.59;5114332;28;20456;-70
2022/03/01 11:20:54;;;;;;;9.43;5.97;;;;;;;10.79;31.35;101483.97;5114769;28;20035;-72
2022/03/01 11:23:23;;;;;;;9.45;6.40;;;;;;;10.69;30.96;101478.66;5113847;28;20543;-72
2022/03/01 11:25:49;;;;;;;9.95;6.38;;;;;;;11.12;30.31;101480.78;5114100;28;20039;-72
2022/03/01 11:28:18;;;;;;;9.65;6.35;;;;;;;11.79;28.78;101481.38;5114010;28;20450;-71
2022/03/01 11:30:51;;;;;;;9.25;5.90;;;;;;;12.43;28.08;101471.47;5114409;28;20032;-72
2022/03/01 11:33:28;;;;;;;12.27;6.22;;;;;;;12.70;27.10;101471.31;5118664;22;20075;-74
2022/03/01 11:35:56;;;;;;;8.83;5.50;;;;;;;13.13;25.86;101464.19;5035551;28;20039;-75
2022/03/01 11:38:28;;;;;;;11.13;6.65;;;;;;;13.36;27.16;101464.47;5035328;28;20280;-75
2022/03/01 11:41:07;;;;;;;8.32;6.30;;;;;;;13.17;27.65;101467.38;5035787;28;20512;-74
2022/03/01 11:43:36;;;;;;;12.02;6.75;;;;;;;13.79;25.89;101465.28;5053556;28;20029;-74
2022/03/01 11:46:17;;;;;;;8.02;5.70;;;;;;;13.71;25.47;101457.22;5054017;28;20493;-74
2022/03/01 11:48:52;;;;;;;9.07;5.60;;;;;;;14.25;24.28;101463.81;5053347;28;20037;-75
2022/03/01 11:51:18;;;;;;;8.30;5.82;;;;;;;13.92;24.87;101454.91;5035296;28;20406;-75
2022/03/01 11:53:49;;;;;;;11.32;6.22;;;;;;;14.23;23.78;101459.63;5053115;28;20071;-75
2022/03/01 11:56:18;;;;;;;10.68;6.32;;;;;;;14.99;24.09;101444.94;5053420;28;20037;-74
2022/03/01 11:58:49;;;;;;;10.52;6.47;;;;;;;15.45;23.29;101445.91;5036888;28;20086;-74
2022/03/01 12:01:14;;;;;;;9.13;6.20;;;;;;;14.12;24.01;101445.56;5054130;28;20457;-75
2022/03/01 12:03:44;;;;;;;8.70;5.97;;;;;;;13.56;25.15;101459.69;5052276;28;20029;-75
2022/03/01 12:06:21;;;;;;;10.55;6.68;;;;;;;13.60;24.43;101457.53;5052750;28;20044;-74
2022/03/01 12:08:56;;;;;;;8.18;5.55;;;;;;;13.42;25.61;101445.09;5034827;28;20049;-74
2022/03/01 12:11:43;;;;;;;8.15;5.90;;;;;;;14.15;23.58;101441.72;5052389;28;20111;-74
2022/03/01 12:32:52;;;;;;;7.63;5.20;;;;;;;12.85;21.60;101436.00;5031537;28;20079;-75
2022/03/01 12:35:18;;;;;;;7.45;4.78;;;;;;;12.27;21.97;101436.63;5032280;28;20041;-74
2022/03/01 12:37:44;;;;;;;6.35;4.45;;;;;;;12.11;22.10;101429.28;5032222;28;20558;-74
2022/03/01 12:40:10;;;;;;;5.97;3.97;;;;;;;12.12;21.91;101417.63;5014646;28;20517;-74
2022/03/01 12:42:36;;;;;;;6.72;4.40;;;;;;;12.15;22.39;101407.47;5042536;28;20064;-74
2022/03/01 12:45:04;;;;;;;6.82;4.53;;;;;;;12.82;21.47;101410.38;5034202;28;20147;-74
2022/03/01 12:47:29;;;;;;;5.13;3.90;;;;;;;13.34;20.46;101407.63;5018200;28;20116;-73
2022/03/01 12:49:55;;;;;;;7.10;4.78;;;;;;;11.69;22.04;101403.22;5034179;28;20111;-75
2022/03/01 12:52:21;;;;;;;7.80;4.35;;;;;;;13.03;21.42;101399.28;5051269;28;20049;-74
2022/03/01 12:54:49;;;;;;;6.25;4.55;;;;;;;13.23;21.43;101406.06;5052284;28;20029;-75
2022/03/01 12:57:15;;;;;;;6.68;4.53;;;;;;;12.96;22.89;101396.41;5034235;28;20625;-75
2022/03/01 12:59:41;;;;;;;7.72;4.43;;;;;;;12.39;23.97;101396.13;5052222;28;20087;-75
2022/03/01 13:02:07;;;;;;;6.25;4.68;;;;;;;13.51;22.46;101395.97;5051871;28;20025;-76
2022/03/01 13:04:35;;;;;;;9.52;5.00;;;;;;;14.57;21.71;101387.06;5051574;28;20036;-76
2022/03/01 13:07:02;;;;;;;7.25;4.80;;;;;;;14.95;22.07;101384.59;5051816;28;20481;-75
2022/03/01 13:09:28;;;;;;;6.95;4.80;;;;;;;14.52;22.28;101374.16;5051741;28;20024;-76
2022/03/01 13:11:53;;;;;;;7.18;4.85;;;;;;;14.82;21.47;101363.69;5050740;28;20021;-76
2022/03/01 13:14:21;;;;;;;8.68;5.05;;;;;;;15.13;21.41;101356.50;5051058;28;20443;-75
2022/03/01 13:16:51;;;;;;;;;;;;;;;15.88;20.04;101353.16;5051862;28;20043;-73
2022/03/01 13:19:18;;;;;;;7.38;5.20;;;;;;;15.79;19.58;101350.72;5051496;28;19913;-74
2022/03/01 13:21:47;;;;;;;6.07;4.70;;;;;;;15.53;19.38;101340.31;5050971;28;20028;-75
2022/03/01 13:24:23;;;;;;;8.18;4.82;;;;;;;15.73;19.61;101342.38;5033627;28;20075;-74
2022/03/01 13:26:50;;;;;;;6.97;4.82;;;;;;;15.71;18.23;101349.78;5051778;28;20075;-75
2022/03/01 13:29:17;;;;;;;8.95;5.15;;;;;;;15.96;18.53;101342.31;5051904;28;20037;-75
2022/03/01 13:31:44;;;;;;;7.10;4.90;;;;;;;15.45;19.21;101343.88;5052160;28;20103;-75
2022/03/01 13:34:10;;;;;;;6.43;4.53;;;;;;;15.65;18.80;101344.28;5051314;28;20036;-76
2022/03/01 13:36:39;;;;;;;6.90;4.63;;;;;;;14.84;19.66;101334.84;5051408;28;20095;-74
2022/03/01 13:39:13;;;;;;;7.15;4.68;;;;;;;14.46;20.37;101331.09;5051491;28;20033;-75
2022/03/01 13:41:48;;;;;;;6.75;4.75;;;;;;;13.90;21.23;101341.75;5051271;28;20497;-75
2022/03/01 13:44:22;;;;;;;6.75;5.03;;;;;;;13.35;21.37;101331.69;5022096;28;20045;-74
2022/03/01 13:46:52;;;;;;;6.95;5.20;;;;;;;12.48;22.90;101327.53;5056609;28;20045;-75
2022/03/01 13:49:27;;;;;;;7.07;5.25;;;;;;;12.66;22.15;101336.31;5056142;28;20037;-75
2022/03/01 13:52:17;;;;;;;6.13;4.72;;;;;;;12.77;22.97;101338.66;5055954;28;20398;-75
2022/03/01 13:55:03;;;;;;;7.40;4.95;;;;;;;11.87;23.55;101333.84;5055448;28;20064;-75
2022/03/01 13:57:36;;;;;;;7.03;4.60;;;;;;;11.42;23.88;101340.09;5055317;28;20047;-75
2022/03/01 14:00:08;;;;;;;8.82;4.80;;;;;;;11.66;24.44;101344.78;5055556;28;20037;-75
2022/03/01 14:02:53;;;;;;;6.47;4.95;;;;;;;11.72;23.29;101340.66;5054906;28;20063;-75
2022/03/01 14:05:21;;;;;;;6.47;4.70;;;;;;;11.82;24.43;101333.44;5055432;28;20091;-75
2022/03/01 14:08:23;;;;;;;6.78;5.03;;;;;;;10.54;25.75;101326.41;5037192;28;20028;-75
2022/03/01 14:11:07;;;;;;;9.75;5.13;;;;;;;11.54;24.02;101332.66;4954501;29;20496;-74
2022/03/01 14:13:40;;;;;;;6.18;4.28;;;;;;;11.06;25.10;101318.69;5029112;28;20053;-74
2022/03/01 14:16:15;;;;;;;6.47;4.47;;;;;;;11.07;24.66;101323.03;5055029;28;20033;-74
2022/03/01 14:18:43;;;;;;;7.03;4.57;;;;;;;11.33;24.59;101324.97;5036772;28;20504;-74
2022/03/01 14:21:11;;;;;;;7.63;4.60;;;;;;;10.56;25.00;101316.47;5054575;28;20078;-74
2022/03/01 14:23:39;;;;;;;6.90;4.80;;;;;;;10.21;25.34;101321.59;5054241;28;20045;-74
2022/03/01 14:26:05;;;;;;;8.20;4.47;;;;;;;10.72;25.17;101314.97;5054678;28;20404;-75
2022/03/01 14:28:31;;;;;;;8.00;4.82;;;;;;;10.45;26.73;101324.66;5055404;28;20031;-74
2022/03/01 14:30:58;;;;;;;6.25;3.95;;;;;;;10.60;23.20;101323.16;5055352;28;20021;-74
2022/03/01 14:33:26;;;;;;;7.63;4.22;;;;;;;10.62;23.04;101317.69;5036815;28;20036;-73
2022/03/01 14:35:52;;;;;;;6.28;4.22;;;;;;;10.40;22.99;101321.56;5054928;28;20028;-75
2022/03/01 14:38:17;;;;;;;6.88;4.13;;;;;;;10.00;24.90;101333.28;5037304;28;20041;-75
2022/03/01 14:40:43;;;;;;;7.72;4.20;;;;;;;10.13;24.83;101321.50;5054922;28;20036;-75
2022/03/01 14:43:09;;;;;;;6.65;4.30;;;;;;;9.43;25.64;101320.88;5054363;28;20037;-76
2022/03/01 14:45:35;;;;;;;4.95;3.83;;;;;;;9.43;25.48;101320.88;5054615;28;20037;-75
2022/03/01 14:48:01;;;;;;;7.95;4.60;;;;;;;9.34;26.52;101321.72;5054468;28;20051;-74
2022/03/01 14:50:27;;;;;;;5.20;3.80;;;;;;;9.44;24.93;101315.41;5054009;28;20050;-74
2022/03/01 14:52:53;;;;;;;6.30;4.18;;;;;;;9.55;24.87;101303.78;5053538;28;20445;-75
2022/03/01 14:55:19;;;;;;;6.88;4.38;;;;;;;9.58;25.38;101310.63;5053952;28;20029;-75
2022/03/01 14:57:45;;;;;;;5.68;4.30;;;;;;;9.61;25.56;101315.69;5035935;28;20036;-76
2022/03/01 15:00:12;;;;;;;6.25;4.07;;;;;;;9.31;24.87;101301.53;5053734;28;20041;-74
2022/03/01 15:02:39;;;;;;;7.47;4.28;;;;;;;9.49;24.96;101309.66;5053634;28;20104;-76
2022/03/01 15:05:06;;;;;;;7.63;4.78;;;;;;;9.77;25.55;101308.78;5054327;28;20048;-75
2022/03/01 15:07:32;;;;;;;6.95;4.30;;;;;;;9.68;25.88;101304.34;5036454;28;20037;-75
2022/03/01 15:09:57;;;;;;;8.43;4.13;;;;;;;9.29;25.69;101310.66;5054004;28;20078;-76
2022/03/01 15:12:23;;;;;;;6.97;4.30;;;;;;;9.60;24.91;101314.03;5054074;28;20057;-76
2022/03/01 15:14:49;;;;;;;5.82;3.95;;;;;;;9.57;24.96;101311.63;5054364;28;20060;-74
2022/03/01 15:17:15;;;;;;;8.07;4.72;;;;;;;9.70;24.69;101309.50;5036015;28;20397;-75
2022/03/01 15:19:41;;;;;;;6.80;4.72;;;;;;;9.72;25.16;101311.06;5053656;28;20037;-75
2022/03/01 15:22:09;;;;;;;5.88;4.32;;;;;;;9.75;24.94;101313.44;5053360;28;20075;-75
2022/03/01 15:24:36;;;;;;;7.50;4.32;;;;;;;9.65;24.93;101315.28;5053806;28;20037;-74
2022/03/01 15:27:03;;;;;;;5.97;4.15;;;;;;;9.57;25.50;101316.94;5053969;28;20444;-75
2022/03/01 15:29:28;;;;;;;5.60;3.88;;;;;;;9.74;25.81;101308.25;5035565;28;20522;-75
2022/03/01 15:31:54;;;;;;;7.22;4.50;;;;;;;9.41;28.03;101296.25;5052870;28;20068;-75
2022/03/01 15:34:20;;;;;;;6.78;5.25;;;;;;;9.34;29.13;101305.75;5035172;28;20033;-74
2022/03/01 15:36:46;;;;;;;8.02;5.47;;;;;;;9.42;29.14;101298.75;5053434;28;20057;-74
2022/03/01 15:39:13;;;;;;;8.38;5.10;;;;;;;9.61;28.50;101307.72;5035973;28;20414;-74
2022/03/01 15:41:38;;;;;;;6.68;5.00;;;;;;;9.60;28.69;101298.06;5035314;28;20033;-76
2022/03/01 15:44:05;;;;;;;8.57;4.80;;;;;;;9.57;29.23;101285.03;5052912;28;20040;-75
2022/03/01 15:46:31;;;;;;;7.20;4.63;;;;;;;9.37;29.79;101302.81;5053088;28;20033;-75
2022/03/01 15:48:56;;;;;;;7.88;4.65;;;;;;;9.27;29.45;101305.47;5053150;28;20033;-74
2022/03/01 15:51:22;;;;;;;7.25;4.68;;;;;;;9.21;30.01;101306.88;5053088;28;20051;-76
2022/03/01 15:53:48;;;;;;;6.72;5.28;;;;;;;9.19;30.22;101308.84;5053000;28;20105;-74
2022/03/01 15:56:13;;;;;;;6.25;4.43;;;;;;;9.01;30.68;101301.69;5052898;28;20041;-74
2022/03/01 15:58:39;;;;;;;7.15;4.60;;;;;;;9.15;29.84;101310.09;5035212;28;20402;-73
2022/03/01 16:01:04;;;;;;;6.97;4.95;;;;;;;9.04;30.33;101301.38;5052824;28;20508;-74
2022/03/01 16:03:30;;;;;;;7.97;4.90;;;;;;;8.96;30.26;101299.41;5052354;28;20048;-75
2022/03/01 16:05:56;;;;;;;8.73;5.07;;;;;;;8.87;30.33;101303.75;5052050;28;20040;-75
2022/03/01 16:08:22;;;;;;;6.63;4.80;;;;;;;8.86;30.67;101302.03;5018438;28;20436;-74
2022/03/01 16:10:48;;;;;;;6.05;4.78;;;;;;;8.77;30.31;101296.72;5035182;28;20103;-74
2022/03/01 16:13:13;;;;;;;9.95;4.70;;;;;;;8.89;30.03;101301.78;5052365;28;20063;-74
2022/03/01 16:15:42;;;;;;;7.18;4.30;;;;;;;8.80;30.05;101297.31;5052595;28;20175;-74
2022/03/01 16:18:08;;;;;;;5.40;4.22;;;;;;;8.87;29.94;101297.59;5052760;28;20547;-76
2022/03/01 16:20:34;;;;;;;8.65;4.30;;;;;;;8.81;29.81;101298.97;5052161;28;20033;-74
2022/03/01 16:22:59;;;;;;;6.82;4.90;;;;;;;8.80;29.81;101297.31;5052217;28;20040;-74
2022/03/01 16:25:25;;;;;;;7.75;5.18;;;;;;;8.72;30.12;101291.81;5052761;28;20033;-74
2022/03/01 16:27:51;;;;;;;5.97;4.38;;;;;;;8.55;30.00;101305.75;5036169;28;20086;-73
2022/03/01 16:30:17;;;;;;;7.80;4.97;;;;;;;8.51;27.93;101296.34;5054792;28;20384;-73
2022/03/01 16:32:43;;;;;;;6.93;4.22;;;;;;;8.37;29.14;101294.91;5052214;28;20056;-74
2022/03/01 16:35:09;;;;;;;7.25;4.00;;;;;;;8.50;29.39;101298.19;5052289;28;20464;-74
2022/03/01 16:37:35;;;;;;;6.55;4.20;;;;;;;8.34;28.31;101303.09;5052263;28;20037;-74
2022/03/01 16:40:02;;;;;;;7.28;4.75;;;;;;;8.29;31.01;101297.38;5052229;28;20090;-74
2022/03/01 16:42:27;;;;;;;8.50;4.57;;;;;;;8.24;32.83;101294.25;5034139;28;20036;-74
2022/03/01 16:44:53;;;;;;;9.38;5.22;;;;;;;8.16;33.54;101293.13;5051880;28;20041;-74
2022/03/01 16:47:19;;;;;;;8.48;5.07;;;;;;;8.13;34.33;101297.84;5052093;28;20055;-74
2022/03/01 16:49:44;;;;;;;7.30;5.05;;;;;;;8.01;34.93;101293.56;5052651;28;20051;-75
2022/03/01 16:52:10;;;;;;;7.60;5.50;;;;;;;7.68;36.01;101292.81;5052595;28;20163;-74
2022/03/01 16:54:40;;;;;;;7.28;5.47;;;;;;;7.78;35.91;101296.38;5053185;28;20087;-74
2022/03/01 16:57:10;;;;;;;7.22;5.60;;;;;;;7.59;36.57;101301.56;5036544;28;20031;-74
2022/03/01 16:59:37;;;;;;;13.05;5.93;;;;;;;7.57;36.63;101311.44;5051920;28;20041;-73
2022/03/01 17:02:04;;;;;;;9.13;5.57;;;;;;;7.54;36.63;101317.84;5051391;28;20079;-74
2022/03/01 17:04:31;;;;;;;10.60;6.38;;;;;;;7.40;37.14;101314.66;5033758;28;20033;-73
2022/03/01 17:06:57;;;;;;;10.02;5.63;;;;;;;7.29;38.07;101316.38;5033959;28;20086;-73
2022/03/01 17:09:24;;;;;;;8.52;5.82;;;;;;;7.19;37.65;101315.44;5051592;28;20041;-74